Time;durP1;ratioP1;P1;durP2;ratioP2;P2;SDS_P1;SDS_P2;PMS_P1;PMS_P2;Temp;Humidity;BMP_temperature;BMP_pressure;BME280_temperature;BME280_humidity;BME280_pressure;Samples;Min_cycle;Max_cycle;Signal;HPM_P1;HPM_P2
2021/11/27 00:01:29;;;;;;;11.63;8.40;;;4.20;99.90;;;;;;5094983;28;20466;-69
2021/11/27 00:03:56;;;;;;;10.83;7.37;;;4.20;99.90;;;;;;5094656;28;20456;-68
2021/11/27 00:06:24;;;;;;;12.83;8.40;;;4.20;99.90;;;;;;5094545;28;20565;-68
2021/11/27 00:08:52;;;;;;;11.13;8.30;;;4.10;99.90;;;;;;5094413;28;20722;-68
2021/11/27 00:11:20;;;;;;;15.50;9.07;;;4.10;99.90;;;;;;5094461;28;20527;-68
2021/11/27 00:13:48;;;;;;;12.17;8.20;;;4.00;99.90;;;;;;5094452;28;20465;-70
2021/11/27 00:16:15;;;;;;;12.07;9.03;;;4.00;99.90;;;;;;5094518;28;20460;-69
2021/11/27 00:18:42;;;;;;;11.33;8.83;;;4.10;99.90;;;;;;5094665;28;20484;-69
2021/11/27 00:21:13;;;;;;;12.00;9.00;;;4.00;99.90;;;;;;5094422;28;20496;-69
2021/11/27 00:23:41;;;;;;;12.90;8.13;;;4.00;99.90;;;;;;5094519;28;20549;-69
2021/11/27 00:26:11;;;;;;;11.07;8.03;;;3.90;99.90;;;;;;5094790;28;20526;-69
2021/11/27 00:28:38;;;;;;;13.40;8.30;;;4.00;99.90;;;;;;5094442;28;20460;-68
2021/11/27 00:31:09;;;;;;;11.00;7.80;;;4.00;99.90;;;;;;5094459;28;20514;-69
2021/11/27 00:33:38;;;;;;;14.33;8.43;;;4.00;99.90;;;;;;5094068;28;20880;-69
2021/11/27 00:36:06;;;;;;;12.40;9.70;;;3.90;99.90;;;;;;5094020;28;20945;-69
2021/11/27 00:38:33;;;;;;;12.67;8.93;;;4.00;99.90;;;;;;5094062;28;20460;-68
2021/11/27 00:41:00;;;;;;;15.80;8.70;;;3.80;99.90;;;;;;5093596;28;20453;-69
2021/11/27 00:43:27;;;;;;;12.30;8.10;;;3.90;99.90;;;;;;5093535;28;20530;-69
2021/11/27 00:45:54;;;;;;;12.77;9.47;;;3.90;99.90;;;;;;5093642;28;20592;-70
2021/11/27 00:48:23;;;;;;;13.70;9.40;;;3.90;99.90;;;;;;5094157;28;20513;-69
2021/11/27 00:50:53;;;;;;;13.10;9.10;;;3.80;99.90;;;;;;5093424;28;20508;-69
2021/11/27 00:53:25;;;;;;;15.70;9.90;;;3.80;99.90;;;;;;5093325;28;20917;-69
2021/11/27 00:55:52;;;;;;;15.03;9.87;;;3.80;99.90;;;;;;5095055;28;20512;-69
2021/11/27 00:58:20;;;;;;;12.07;8.47;;;3.90;99.90;;;;;;5096995;28;20461;-69
2021/11/27 01:00:50;;;;;;;11.73;9.00;;;3.90;99.90;;;;;;5097338;28;20460;-68
2021/11/27 01:03:20;;;;;;;16.10;9.37;;;3.90;99.90;;;;;;5097321;28;20455;-69
2021/11/27 01:05:50;;;;;;;13.37;8.60;;;3.90;99.90;;;;;;5097311;28;20896;-69
2021/11/27 01:08:17;;;;;;;10.77;8.33;;;4.00;99.90;;;;;;5096648;28;20510;-69
2021/11/27 01:10:49;;;;;;;15.83;9.10;;;4.00;99.90;;;;;;5097261;28;20530;-69
2021/11/27 01:13:17;;;;;;;18.40;9.57;;;3.90;99.90;;;;;;5097309;28;20493;-69
2021/11/27 01:15:44;;;;;;;16.87;9.23;;;3.90;99.90;;;;;;5097171;28;20460;-69
2021/11/27 01:18:15;;;;;;;13.83;9.17;;;3.80;99.90;;;;;;5097037;28;20451;-69
2021/11/27 01:20:45;;;;;;;12.90;10.07;;;3.80;99.90;;;;;;5096939;28;20898;-69
2021/11/27 01:23:13;;;;;;;12.60;8.37;;;3.80;99.90;;;;;;5096452;28;20540;-69
2021/11/27 01:25:44;;;;;;;11.57;8.00;;;3.60;99.90;;;;;;5097037;28;20534;-69
2021/11/27 01:28:12;;;;;;;13.53;9.77;;;3.60;99.90;;;;;;5097108;28;20440;-69
2021/11/27 01:30:40;;;;;;;14.90;8.60;;;3.60;99.90;;;;;;5096624;28;20525;-69
2021/11/27 01:33:07;;;;;;;13.43;8.97;;;3.60;99.90;;;;;;5096870;28;20817;-69
2021/11/27 01:35:34;;;;;;;12.53;9.17;;;3.60;99.90;;;;;;5096408;28;20514;-69
2021/11/27 01:38:01;;;;;;;16.37;8.43;;;3.60;99.90;;;;;;5096579;28;20459;-70
2021/11/27 01:40:30;;;;;;;16.47;9.07;;;3.60;99.90;;;;;;5096428;28;20512;-69
2021/11/27 01:42:57;;;;;;;13.70;9.17;;;3.60;99.90;;;;;;5096162;28;20495;-70
2021/11/27 01:45:26;;;;;;;11.03;7.83;;;3.60;99.90;;;;;;5095918;28;20479;-69
2021/11/27 01:47:56;;;;;;;12.40;8.87;;;3.60;99.90;;;;;;5096014;28;20969;-69
2021/11/27 01:50:27;;;;;;;12.50;8.60;;;3.50;99.90;;;;;;5096522;28;20440;-69
2021/11/27 01:52:54;;;;;;;14.73;8.40;;;3.60;99.90;;;;;;5096963;28;20453;-69
2021/11/27 01:55:22;;;;;;;14.73;8.90;;;3.50;99.90;;;;;;5096805;28;20469;-69
2021/11/27 01:57:50;;;;;;;13.20;8.57;;;3.50;99.90;;;;;;5095838;28;20882;-69
2021/11/27 02:00:23;;;;;;;13.20;8.60;;;3.50;99.90;;;;;;5096180;28;20518;-69
2021/11/27 02:02:53;;;;;;;16.03;9.87;;;3.50;99.90;;;;;;5096045;28;20451;-68
2021/11/27 02:05:21;;;;;;;13.53;8.13;;;3.40;99.90;;;;;;5096466;28;20808;-69
2021/11/27 02:07:49;;;;;;;12.73;8.60;;;3.40;99.90;;;;;;5095061;28;20480;-69
2021/11/27 02:10:16;;;;;;;14.30;8.80;;;3.40;99.90;;;;;;5095754;28;20495;-70
2021/11/27 02:12:44;;;;;;;12.43;8.73;;;3.40;99.90;;;;;;5096039;28;20453;-70
2021/11/27 02:15:14;;;;;;;12.17;8.17;;;3.20;99.90;;;;;;5095809;28;20537;-68
2021/11/27 02:17:42;;;;;;;14.33;9.87;;;3.10;99.90;;;;;;5095481;28;20457;-69
2021/11/27 02:20:10;;;;;;;14.50;9.47;;;3.10;99.90;;;;;;5095899;28;20530;-70
2021/11/27 02:22:39;;;;;;;12.00;9.27;;;3.10;99.90;;;;;;5095401;28;20917;-69
2021/11/27 02:25:12;;;;;;;17.63;10.10;;;3.10;99.90;;;;;;5095568;28;20460;-70
2021/11/27 02:27:42;;;;;;;14.03;9.50;;;3.20;99.90;;;;;;5095360;28;20941;-69
2021/11/27 02:30:10;;;;;;;18.73;10.17;;;3.10;99.90;;;;;;5095217;28;20490;-69
2021/11/27 02:32:37;;;;;;;13.97;9.63;;;3.10;99.90;;;;;;5095167;28;20525;-70
2021/11/27 02:35:05;;;;;;;17.10;9.93;;;3.20;99.90;;;;;;5095171;28;20460;-70
2021/11/27 02:37:32;;;;;;;12.50;8.83;;;3.10;99.90;;;;;;5095839;28;20518;-69
2021/11/27 02:40:01;;;;;;;13.10;9.23;;;3.10;99.90;;;;;;5096655;28;20488;-69
2021/11/27 02:42:28;;;;;;;15.03;9.40;;;3.00;99.90;;;;;;5095876;28;20503;-69
2021/11/27 02:44:55;;;;;;;13.40;9.47;;;3.00;99.90;;;;;;5096162;28;20466;-69
2021/11/27 02:47:22;;;;;;;16.40;9.40;;;3.00;99.90;;;;;;5095376;28;20534;-70
2021/11/27 02:49:49;;;;;;;13.63;9.47;;;2.90;99.90;;;;;;5094977;28;20464;-69
2021/11/27 02:52:17;;;;;;;13.90;8.47;;;2.90;99.90;;;;;;5095214;28;20459;-69
2021/11/27 02:54:44;;;;;;;11.73;8.30;;;2.90;99.90;;;;;;5095087;28;20582;-69
2021/11/27 02:57:12;;;;;;;13.20;8.83;;;2.90;99.90;;;;;;5095114;28;20460;-70
2021/11/27 02:59:39;;;;;;;13.30;9.00;;;3.00;99.90;;;;;;5095091;28;20494;-68
2021/11/27 03:02:06;;;;;;;12.93;9.30;;;3.00;99.90;;;;;;5094498;28;20848;-69
2021/11/27 03:04:36;;;;;;;14.93;9.70;;;2.90;99.90;;;;;;5094509;28;20467;-69
2021/11/27 03:07:04;;;;;;;14.03;9.50;;;2.90;99.90;;;;;;5094821;28;20940;-70
2021/11/27 03:09:31;;;;;;;14.77;9.53;;;3.00;99.90;;;;;;5094941;28;20924;-69
2021/11/27 03:11:59;;;;;;;15.50;9.20;;;3.00;99.90;;;;;;5094895;28;20454;-70
2021/11/27 03:14:28;;;;;;;12.23;8.90;;;3.00;99.90;;;;;;5094353;28;20499;-68
2021/11/27 03:16:57;;;;;;;12.83;9.17;;;3.00;99.90;;;;;;5094791;28;20525;-69
2021/11/27 03:19:24;;;;;;;13.73;8.83;;;3.00;99.90;;;;;;5093214;28;20567;-68
2021/11/27 03:21:52;;;;;;;13.00;8.30;;;3.00;99.90;;;;;;5093970;28;20457;-69
2021/11/27 03:24:19;;;;;;;14.83;8.63;;;3.00;99.90;;;;;;5094738;28;20809;-69
2021/11/27 03:26:46;;;;;;;16.17;9.87;;;2.90;99.90;;;;;;5094603;28;20556;-69
2021/11/27 03:29:13;;;;;;;12.17;9.20;;;2.90;99.90;;;;;;5094182;28;20534;-70
2021/11/27 03:31:41;;;;;;;16.83;9.60;;;2.80;99.90;;;;;;5094269;28;20489;-69
2021/11/27 03:34:08;;;;;;;16.47;9.67;;;2.80;99.90;;;;;;5094096;28;20515;-69
2021/11/27 03:36:35;;;;;;;14.23;9.07;;;2.70;99.90;;;;;;5094145;28;20463;-70
2021/11/27 03:39:04;;;;;;;11.30;8.70;;;2.70;99.90;;;;;;5094263;28;20491;-69
2021/11/27 03:41:31;;;;;;;16.57;9.43;;;2.70;99.90;;;;;;5094204;28;20464;-70
2021/11/27 03:43:58;;;;;;;14.60;9.70;;;2.70;99.90;;;;;;5094545;28;20451;-70
2021/11/27 03:46:25;;;;;;;17.57;10.13;;;2.70;99.90;;;;;;5094116;28;20787;-69
2021/11/27 03:48:54;;;;;;;17.60;10.77;;;2.60;99.90;;;;;;5094229;28;20458;-70
2021/11/27 03:51:24;;;;;;;16.20;10.00;;;2.70;99.90;;;;;;5094308;28;20564;-70
2021/11/27 03:53:51;;;;;;;13.53;9.57;;;2.70;99.90;;;;;;5094007;28;20544;-69
2021/11/27 03:56:21;;;;;;;14.13;9.40;;;2.70;99.90;;;;;;5094165;28;20471;-70
2021/11/27 03:58:50;;;;;;;15.00;9.67;;;2.70;99.90;;;;;;5094191;28;20503;-70
2021/11/27 04:01:19;;;;;;;17.17;10.33;;;2.60;99.90;;;;;;5093883;28;20493;-68
2021/11/27 04:03:47;;;;;;;16.10;9.37;;;2.60;99.90;;;;;;5093714;28;20460;-69
2021/11/27 04:06:17;;;;;;;15.27;9.17;;;2.60;99.90;;;;;;5094148;28;20461;-69
2021/11/27 04:08:45;;;;;;;14.60;9.20;;;2.60;99.90;;;;;;5093561;28;20490;-69
2021/11/27 04:11:12;;;;;;;14.00;9.30;;;2.50;99.90;;;;;;5094046;28;20498;-69
2021/11/27 04:13:40;;;;;;;13.40;8.77;;;2.50;99.90;;;;;;5093727;28;20494;-69
2021/11/27 04:16:07;;;;;;;13.87;8.73;;;2.50;99.90;;;;;;5093886;28;20527;-69
2021/11/27 04:18:34;;;;;;;13.87;9.17;;;2.50;99.90;;;;;;5093867;28;20857;-70
2021/11/27 04:21:01;;;;;;;12.37;8.97;;;2.50;99.90;;;;;;5093902;28;20460;-69
2021/11/27 04:23:29;;;;;;;10.03;9.00;;;2.50;99.90;;;;;;5093597;28;20548;-69
2021/11/27 04:25:57;;;;;;;15.27;9.90;;;2.50;99.90;;;;;;5093764;28;20464;-69
2021/11/27 04:28:24;;;;;;;14.70;9.47;;;2.40;99.90;;;;;;5093924;28;20508;-69
2021/11/27 04:30:51;;;;;;;17.57;9.33;;;2.50;99.90;;;;;;5095138;28;20800;-70
2021/11/27 04:33:18;;;;;;;12.63;8.20;;;2.60;99.90;;;;;;5097828;28;20486;-69
2021/11/27 04:35:45;;;;;;;12.03;8.60;;;2.60;99.90;;;;;;5097868;28;20457;-69
2021/11/27 04:38:12;;;;;;;14.73;8.80;;;2.60;99.90;;;;;;5097835;28;20454;-70
2021/11/27 04:40:41;;;;;;;15.90;9.30;;;2.60;99.90;;;;;;5097677;28;20489;-70
2021/11/27 04:43:08;;;;;;;15.07;9.23;;;2.70;99.90;;;;;;5097098;28;20456;-70
2021/11/27 04:45:35;;;;;;;12.03;8.37;;;2.70;99.90;;;;;;5097305;28;20486;-70
2021/11/27 04:48:03;;;;;;;12.90;8.57;;;2.80;99.90;;;;;;5097581;28;20478;-70
2021/11/27 04:50:34;;;;;;;12.80;8.13;;;2.70;99.90;;;;;;5097731;28;20522;-69
2021/11/27 04:53:04;;;;;;;12.40;8.50;;;2.70;99.90;;;;;;5097443;28;20787;-70
2021/11/27 04:55:32;;;;;;;14.13;8.67;;;2.80;99.90;;;;;;5097158;28;20765;-69
2021/11/27 04:58:01;;;;;;;12.83;8.63;;;2.80;99.90;;;;;;5097030;28;20455;-69
2021/11/27 05:00:33;;;;;;;13.17;8.90;;;2.80;99.90;;;;;;5096575;28;20515;-69
2021/11/27 05:03:00;;;;;;;12.10;8.03;;;2.90;99.90;;;;;;5097071;28;20442;-69
2021/11/27 05:05:27;;;;;;;13.43;9.00;;;2.90;99.90;;;;;;5097376;28;20488;-69
2021/11/27 05:07:55;;;;;;;11.20;8.07;;;2.90;99.90;;;;;;5097389;28;20488;-68
2021/11/27 05:10:23;;;;;;;15.13;8.30;;;2.90;99.90;;;;;;5096998;28;20833;-69
2021/11/27 05:12:50;;;;;;;10.37;8.37;;;2.90;99.90;;;;;;5097156;28;20466;-69
2021/11/27 05:15:19;;;;;;;14.23;8.50;;;2.90;99.90;;;;;;5097071;28;20483;-69
2021/11/27 05:17:46;;;;;;;12.57;8.43;;;3.00;99.90;;;;;;5097180;28;20897;-69
2021/11/27 05:20:15;;;;;;;14.87;8.60;;;3.00;99.90;;;;;;5096398;28;20900;-69
2021/11/27 05:22:42;;;;;;;12.43;8.57;;;3.00;99.90;;;;;;5096765;28;20485;-69
2021/11/27 05:25:10;;;;;;;14.87;8.50;;;2.90;99.90;;;;;;5096709;28;20519;-69
2021/11/27 05:27:38;;;;;;;11.53;8.17;;;2.90;99.90;;;;;;5096881;28;20511;-70
2021/11/27 05:30:07;;;;;;;15.40;8.97;;;3.00;99.90;;;;;;5096634;28;20461;-70
2021/11/27 05:32:50;;;;;;;14.90;8.97;;;3.00;99.90;;;;;;5097158;28;20600;-70
2021/11/27 05:35:18;;;;;;;12.10;9.03;;;3.10;99.90;;;;;;5096830;28;20445;-70
2021/11/27 05:37:46;;;;;;;15.17;9.33;;;3.00;99.90;;;;;;5097152;28;20449;-70
2021/11/27 05:40:13;;;;;;;14.83;9.93;;;3.00;99.90;;;;;;5096688;28;20458;-70
2021/11/27 05:42:43;;;;;;;14.43;9.43;;;2.90;99.90;;;;;;5095463;28;20491;-70
2021/11/27 05:45:13;;;;;;;15.60;9.10;;;3.00;99.90;;;;;;5096851;28;20548;-70
2021/11/27 05:47:41;;;;;;;14.37;8.90;;;3.00;99.90;;;;;;5097213;28;20483;-70
2021/11/27 05:50:10;;;;;;;13.10;9.57;;;3.00;99.90;;;;;;5097209;28;20793;-70
2021/11/27 05:52:37;;;;;;;16.63;8.70;;;3.00;99.90;;;;;;5096628;28;20528;-69
2021/11/27 05:55:05;;;;;;;16.67;10.17;;;2.90;99.90;;;;;;5096351;28;20484;-69
2021/11/27 05:57:32;;;;;;;16.57;9.00;;;2.90;99.90;;;;;;5096339;28;20484;-69
2021/11/27 05:59:59;;;;;;;16.40;8.37;;;2.80;99.90;;;;;;5096455;28;20559;-70
2021/11/27 06:02:26;;;;;;;17.53;10.07;;;2.80;99.90;;;;;;5096850;28;20478;-69
2021/11/27 06:04:55;;;;;;;14.20;8.70;;;2.80;99.90;;;;;;5096228;28;20520;-70
2021/11/27 06:07:22;;;;;;;17.30;10.43;;;2.90;99.90;;;;;;5096275;28;20537;-69
2021/11/27 06:09:49;;;;;;;23.20;10.30;;;2.80;99.90;;;;;;5097594;28;20564;-70
2021/11/27 06:12:16;;;;;;;18.43;10.40;;;2.90;99.90;;;;;;5098194;28;20486;-69
2021/11/27 06:14:43;;;;;;;14.57;9.77;;;2.90;99.90;;;;;;5099786;28;20834;-69
2021/11/27 06:17:10;;;;;;;16.00;10.70;;;3.00;99.90;;;;;;5099602;28;20498;-69
2021/11/27 06:19:37;;;;;;;15.63;10.10;;;3.00;99.90;;;;;;5099917;28;20455;-70
2021/11/27 06:22:05;;;;;;;17.20;9.50;;;3.00;99.90;;;;;;5097087;28;20523;-70
2021/11/27 06:24:32;;;;;;;15.33;10.50;;;3.00;99.90;;;;;;5096278;28;20906;-70
2021/11/27 06:26:59;;;;;;;18.20;10.97;;;3.00;99.90;;;;;;5096729;28;20446;-70
2021/11/27 06:29:26;;;;;;;21.53;12.40;;;3.00;99.90;;;;;;5096006;28;20803;-69
2021/11/27 06:31:53;;;;;;;17.87;11.37;;;3.00;99.90;;;;;;5096553;28;20489;-71
2021/11/27 06:34:20;;;;;;;21.37;12.00;;;2.90;99.90;;;;;;5096725;28;20872;-70
2021/11/27 06:36:47;;;;;;;16.27;11.00;;;2.90;99.90;;;;;;5095174;28;20454;-69
2021/11/27 06:39:15;;;;;;;18.57;11.00;;;2.90;99.90;;;;;;5095684;28;20535;-69
2021/11/27 06:41:42;;;;;;;18.50;10.30;;;2.90;99.90;;;;;;5095295;28;20464;-69
2021/11/27 06:44:09;;;;;;;19.70;11.47;;;2.90;99.90;;;;;;5095005;28;20495;-69
2021/11/27 06:46:36;;;;;;;17.77;11.27;;;2.90;99.90;;;;;;5095053;28;20467;-70
2021/11/27 06:49:03;;;;;;;18.90;12.20;;;2.90;99.90;;;;;;5095819;28;20553;-70
2021/11/27 06:51:30;;;;;;;18.17;11.40;;;2.90;99.90;;;;;;5095541;28;20941;-69
2021/11/27 06:53:57;;;;;;;17.33;11.20;;;2.90;99.90;;;;;;5095410;28;20807;-70
2021/11/27 06:56:25;;;;;;;17.83;11.10;;;3.00;99.90;;;;;;5095416;28;20828;-69
2021/11/27 06:58:52;;;;;;;23.33;11.97;;;3.00;99.90;;;;;;5095209;28;20487;-69
2021/11/27 07:01:19;;;;;;;17.83;11.60;;;2.90;99.90;;;;;;5095542;28;20485;-69
2021/11/27 07:03:46;;;;;;;21.00;11.63;;;2.90;99.90;;;;;;5094759;28;20848;-69
2021/11/27 07:06:13;;;;;;;18.87;11.47;;;3.00;99.90;;;;;;5094761;28;20900;-69
2021/11/27 07:08:40;;;;;;;17.07;11.47;;;3.10;99.90;;;;;;5094717;28;20546;-68
2021/11/27 07:11:07;;;;;;;19.63;12.80;;;3.00;99.90;;;;;;5094724;28;20523;-69
2021/11/27 07:13:35;;;;;;;21.50;12.47;;;3.00;99.90;;;;;;5095034;28;20453;-69
2021/11/27 07:16:02;;;;;;;19.00;12.60;;;3.10;99.90;;;;;;5095191;28;20464;-70
2021/11/27 07:18:29;;;;;;;18.40;12.00;;;3.20;99.90;;;;;;5095142;28;20494;-69
2021/11/27 07:20:56;;;;;;;21.90;12.77;;;3.20;99.90;;;;;;5095549;28;20457;-69
2021/11/27 07:23:26;;;;;;;23.07;13.57;;;3.10;99.90;;;;;;5094856;28;20482;-69
2021/11/27 07:25:52;;;;;;;24.20;13.43;;;3.10;99.90;;;;;;5095227;28;20465;-69
2021/11/27 07:28:20;;;;;;;22.47;13.73;;;3.10;99.90;;;;;;5095158;28;20536;-69
2021/11/27 07:30:49;;;;;;;20.90;12.33;;;3.10;99.90;;;;;;5095161;28;20472;-69
2021/11/27 07:33:20;;;;;;;23.13;14.50;;;3.10;99.90;;;;;;5094824;28;20483;-69
2021/11/27 07:35:49;;;;;;;22.77;13.40;;;3.10;99.90;;;;;;5095229;28;20752;-69
2021/11/27 07:38:16;;;;;;;23.07;14.30;;;3.20;99.90;;;;;;5094592;28;20459;-69
2021/11/27 07:40:43;;;;;;;27.27;13.63;;;3.20;99.90;;;;;;5095126;28;20515;-69
2021/11/27 07:43:10;;;;;;;24.73;13.07;;;3.30;99.90;;;;;;5095023;28;20458;-70
2021/11/27 07:45:38;;;;;;;25.50;13.60;;;3.40;99.90;;;;;;5095036;28;20459;-69
2021/11/27 07:48:06;;;;;;;19.67;12.87;;;3.50;99.90;;;;;;5094994;28;20485;-70
2021/11/27 07:50:34;;;;;;;20.20;12.80;;;3.50;99.90;;;;;;5095083;28;20527;-69
2021/11/27 07:53:01;;;;;;;24.60;14.27;;;3.50;99.90;;;;;;5094964;28;20741;-70
2021/11/27 07:55:29;;;;;;;23.37;13.60;;;3.50;99.90;;;;;;5095477;28;20487;-69
2021/11/27 07:57:55;;;;;;;22.80;13.50;;;3.60;99.90;;;;;;5094792;28;20490;-70
2021/11/27 08:00:23;;;;;;;26.50;14.03;;;3.60;99.90;;;;;;5094787;28;20492;-69
2021/11/27 08:02:50;;;;;;;25.50;13.63;;;3.60;99.90;;;;;;5095304;28;20814;-70
2021/11/27 08:05:19;;;;;;;22.87;13.60;;;3.60;99.90;;;;;;5095442;28;20460;-70
2021/11/27 08:07:46;;;;;;;21.10;13.17;;;3.60;99.90;;;;;;5098842;28;20457;-69
2021/11/27 08:10:15;;;;;;;20.93;13.10;;;3.70;99.90;;;;;;5099001;28;20467;-70
2021/11/27 08:12:42;;;;;;;21.47;13.70;;;3.70;99.90;;;;;;5099594;28;20824;-70
2021/11/27 08:15:10;;;;;;;24.07;12.63;;;3.70;99.90;;;;;;5098857;28;20777;-70
2021/11/27 08:17:37;;;;;;;23.00;12.20;;;3.80;99.90;;;;;;5098823;28;20464;-70
2021/11/27 08:20:04;;;;;;;23.37;13.77;;;3.90;99.90;;;;;;5098721;28;20456;-70
2021/11/27 08:22:32;;;;;;;21.20;12.40;;;4.00;99.90;;;;;;5098442;28;20961;-69
2021/11/27 08:24:59;;;;;;;22.87;13.77;;;4.00;99.90;;;;;;5098097;28;20497;-69
2021/11/27 08:27:27;;;;;;;19.60;14.17;;;3.90;99.90;;;;;;5098232;28;20460;-69
2021/11/27 08:29:55;;;;;;;23.70;13.70;;;3.90;99.90;;;;;;5098277;28;20587;-69
2021/11/27 08:32:22;;;;;;;24.27;13.50;;;4.00;99.90;;;;;;5098537;28;20516;-69
2021/11/27 08:34:49;;;;;;;20.37;12.30;;;4.10;99.90;;;;;;5098421;28;20455;-69
2021/11/27 08:37:16;;;;;;;23.70;14.97;;;4.20;99.90;;;;;;5098652;28;20790;-70
2021/11/27 08:39:44;;;;;;;24.17;14.90;;;4.20;99.90;;;;;;5098573;28;20956;-70
2021/11/27 08:42:11;;;;;;;22.47;12.90;;;4.20;99.90;;;;;;5099263;28;20488;-68
2021/11/27 08:44:38;;;;;;;23.10;13.03;;;4.20;99.90;;;;;;5099208;28;20965;-69
2021/11/27 08:47:05;;;;;;;23.63;14.23;;;4.20;99.90;;;;;;5098366;28;20471;-69
2021/11/27 08:49:32;;;;;;;22.57;13.20;;;4.20;99.90;;;;;;5097973;28;20537;-70
2021/11/27 08:51:59;;;;;;;25.87;13.53;;;4.20;99.90;;;;;;5098051;28;20536;-69
2021/11/27 08:54:26;;;;;;;22.93;13.67;;;4.30;99.90;;;;;;5098289;28;20526;-70
2021/11/27 08:56:56;;;;;;;22.07;14.50;;;4.30;99.90;;;;;;5098366;28;20859;-70
2021/11/27 08:59:23;;;;;;;24.93;14.57;;;4.20;99.90;;;;;;5099226;28;20536;-69
2021/11/27 09:01:50;;;;;;;24.10;13.87;;;4.20;99.90;;;;;;5098068;28;20482;-70
2021/11/27 09:04:17;;;;;;;26.00;14.53;;;4.10;99.90;;;;;;5098648;28;20538;-70
2021/11/27 09:06:47;;;;;;;24.70;14.33;;;4.10;99.90;;;;;;5097706;28;20503;-69
2021/11/27 09:09:14;;;;;;;22.87;14.67;;;4.20;99.90;;;;;;5097204;28;20484;-70
2021/11/27 09:11:41;;;;;;;26.07;13.70;;;4.30;99.90;;;;;;5097916;28;20468;-70
2021/11/27 09:14:10;;;;;;;21.30;13.93;;;4.30;99.90;;;;;;5097031;28;20461;-69
2021/11/27 09:16:37;;;;;;;25.30;14.60;;;4.30;99.90;;;;;;5096938;28;20982;-70
2021/11/27 09:19:06;;;;;;;26.70;14.90;;;4.30;99.90;;;;;;5097034;28;20503;-69
2021/11/27 09:21:34;;;;;;;25.77;15.00;;;4.30;99.90;;;;;;5096715;28;20528;-70
2021/11/27 09:24:01;;;;;;;21.93;13.87;;;4.30;99.90;;;;;;5097206;28;20457;-69
2021/11/27 09:26:28;;;;;;;21.27;13.53;;;4.40;99.90;;;;;;5097191;28;20465;-69
2021/11/27 09:28:58;;;;;;;22.00;14.30;;;4.40;99.90;;;;;;5096543;28;20477;-69
2021/11/27 09:31:26;;;;;;;22.37;13.70;;;4.50;99.90;;;;;;5096925;28;20500;-69
2021/11/27 09:33:53;;;;;;;23.73;14.80;;;4.50;99.90;;;;;;5097296;28;20534;-69
2021/11/27 09:36:22;;;;;;;20.30;12.80;;;4.50;99.90;;;;;;5097172;28;20460;-69
2021/11/27 09:38:50;;;;;;;22.33;13.43;;;4.50;99.90;;;;;;5097011;28;20475;-69
2021/11/27 09:41:23;;;;;;;20.97;14.03;;;4.50;99.90;;;;;;5096616;28;20454;-69
2021/11/27 09:43:52;;;;;;;20.40;12.60;;;4.50;99.90;;;;;;5096638;28;20441;-69
2021/11/27 09:46:21;;;;;;;22.30;14.10;;;4.40;99.90;;;;;;5096215;28;20832;-68
2021/11/27 09:48:52;;;;;;;20.87;13.80;;;4.30;99.90;;;;;;5096420;28;20957;-69
2021/11/27 09:51:20;;;;;;;24.47;14.10;;;4.20;99.90;;;;;;5096642;28;20444;-69
2021/11/27 09:53:48;;;;;;;24.30;13.33;;;4.30;99.90;;;;;;5095718;28;20458;-69
2021/11/27 09:56:16;;;;;;;23.20;14.60;;;4.30;99.90;;;;;;5096203;28;20457;-69
2021/11/27 09:58:44;;;;;;;25.63;13.77;;;4.30;99.90;;;;;;5096197;28;20534;-69
2021/11/27 10:01:14;;;;;;;22.07;13.77;;;4.30;99.90;;;;;;5095924;28;20547;-68
2021/11/27 10:03:49;;;;;;;25.20;13.70;;;4.40;99.90;;;;;;5095595;28;20492;-69
2021/11/27 10:06:18;;;;;;;21.67;14.60;;;4.50;99.90;;;;;;5095962;28;20452;-69
2021/11/27 10:08:45;;;;;;;27.80;14.70;;;4.60;99.90;;;;;;5095719;28;20996;-69
2021/11/27 10:11:12;;;;;;;19.63;12.70;;;4.70;99.90;;;;;;5096282;28;20524;-70
2021/11/27 10:13:39;;;;;;;24.10;13.67;;;4.90;99.90;;;;;;5095774;28;20863;-69
2021/11/27 10:16:06;;;;;;;21.20;12.90;;;5.00;99.90;;;;;;5095792;28;20454;-70
2021/11/27 10:18:33;;;;;;;20.50;13.30;;;4.90;99.90;;;;;;5096098;28;20469;-69
2021/11/27 10:21:19;;;;;;;21.47;14.77;;;5.00;99.90;;;;;;5095944;28;20489;-70
2021/11/27 10:23:48;;;;;;;21.67;14.13;;;5.00;99.90;;;;;;5095722;28;21027;-70
2021/11/27 10:26:35;;;;;;;22.63;13.80;;;5.10;99.90;;;;;;5095196;28;20527;-69
2021/11/27 10:29:15;;;;;;;19.07;13.23;;;5.20;99.90;;;;;;5095046;28;20955;-70
2021/11/27 10:31:46;;;;;;;22.27;14.57;;;5.30;99.90;;;;;;5095466;28;20438;-69
2021/11/27 10:34:18;;;;;;;21.10;13.90;;;5.40;99.90;;;;;;5095216;28;20457;-69
2021/11/27 10:36:46;;;;;;;24.03;13.93;;;5.40;99.90;;;;;;5095511;28;20457;-70
2021/11/27 10:39:13;;;;;;;23.40;12.47;;;5.40;99.90;;;;;;5095361;28;20449;-69
2021/11/27 10:41:56;;;;;;;19.70;12.33;;;5.40;99.90;;;;;;5095234;28;20497;-69
2021/11/27 10:44:28;;;;;;;23.03;12.70;;;5.20;99.90;;;;;;5094718;28;20446;-69
2021/11/27 10:47:12;;;;;;;23.20;14.10;;;5.20;99.90;;;;;;5094978;28;20864;-69
2021/11/27 10:49:39;;;;;;;21.20;12.80;;;5.20;99.90;;;;;;5094930;28;20516;-70
2021/11/27 10:52:10;;;;;;;21.17;13.97;;;5.20;99.90;;;;;;5094713;28;20461;-68
2021/11/27 10:54:55;;;;;;;23.90;14.00;;;5.20;99.90;;;;;;5094975;28;20523;-69
2021/11/27 10:57:33;;;;;;;22.53;14.43;;;5.20;99.90;;;;;;5094719;28;20534;-68
2021/11/27 11:00:03;;;;;;;23.30;14.10;;;5.20;99.90;;;;;;5095115;28;20523;-69
2021/11/27 11:02:33;;;;;;;23.53;13.73;;;5.20;99.90;;;;;;5094639;28;20449;-70
2021/11/27 11:05:01;;;;;;;19.43;12.77;;;5.20;99.90;;;;;;5094500;28;20838;-69
2021/11/27 11:07:30;;;;;;;23.03;13.97;;;5.30;99.90;;;;;;5094936;28;20968;-69
2021/11/27 11:10:04;;;;;;;20.37;14.07;;;5.30;99.90;;;;;;5095421;28;20547;-70
2021/11/27 11:12:40;;;;;;;20.10;13.10;;;5.20;99.90;;;;;;5094548;28;20467;-70
2021/11/27 11:15:10;;;;;;;20.00;14.00;;;5.20;99.90;;;;;;5094232;28;20461;-70
2021/11/27 11:17:36;;;;;;;21.30;15.10;;;5.20;99.90;;;;;;5094514;28;20469;-69
2021/11/27 11:20:14;;;;;;;18.53;12.77;;;5.20;99.90;;;;;;5094287;28;20458;-70
2021/11/27 11:22:55;;;;;;;19.40;13.43;;;5.20;99.90;;;;;;5093943;28;20584;-70
2021/11/27 11:25:22;;;;;;;19.37;12.37;;;5.30;99.90;;;;;;5094331;28;20474;-69
2021/11/27 11:27:49;;;;;;;20.87;14.00;;;5.40;99.90;;;;;;5094434;28;20462;-69
2021/11/27 11:30:20;;;;;;;20.00;12.67;;;5.50;99.90;;;;;;5094404;28;20482;-70
2021/11/27 11:32:47;;;;;;;19.90;12.27;;;5.50;99.90;;;;;;5094417;28;20470;-69
2021/11/27 11:35:15;;;;;;;21.97;11.80;;;5.50;99.90;;;;;;5094234;28;20858;-69
2021/11/27 11:37:43;;;;;;;19.17;13.20;;;5.50;99.90;;;;;;5093798;28;20970;-70
2021/11/27 11:40:12;;;;;;;17.87;12.27;;;5.60;99.90;;;;;;5092888;28;20484;-70
2021/11/27 11:42:40;;;;;;;20.63;13.90;;;5.60;99.90;;;;;;5094180;28;20981;-71
2021/11/27 11:45:08;;;;;;;20.57;12.50;;;5.70;99.90;;;;;;5093663;28;20517;-70
2021/11/27 11:47:35;;;;;;;23.73;13.67;;;5.90;99.90;;;;;;5094365;28;20459;-71
2021/11/27 11:50:06;;;;;;;18.20;12.70;;;6.00;99.90;;;;;;5094731;28;20482;-71
2021/11/27 11:52:39;;;;;;;18.97;12.07;;;6.10;99.90;;;;;;5094366;28;20443;-71
2021/11/27 11:55:13;;;;;;;20.57;12.43;;;6.10;99.90;;;;;;5094580;28;20446;-70
2021/11/27 11:57:46;;;;;;;22.03;13.57;;;6.00;99.90;;;;;;5095340;28;20493;-71
2021/11/27 12:00:29;;;;;;;22.70;13.67;;;5.90;99.90;;;;;;5094159;28;20454;-70
2021/11/27 12:03:05;;;;;;;22.37;12.57;;;5.80;99.90;;;;;;5092858;28;20968;-70
2021/11/27 12:05:34;;;;;;;19.20;11.70;;;5.90;99.90;;;;;;5095332;28;20803;-71
2021/11/27 12:08:04;;;;;;;22.23;13.87;;;6.00;99.90;;;;;;5094334;28;20460;-71
2021/11/27 12:10:40;;;;;;;19.60;12.83;;;6.00;99.90;;;;;;5093779;28;20465;-70
2021/11/27 12:13:30;;;;;;;20.97;12.87;;;5.80;99.90;;;;;;5094500;28;20545;-70
2021/11/27 12:16:13;;;;;;;23.73;14.87;;;5.80;99.90;;;;;;5094295;28;20434;-70
2021/11/27 12:19:08;;;;;;;24.53;14.00;;;5.70;99.90;;;;;;5094227;28;20466;-70
2021/11/27 12:21:35;;;;;;;21.33;13.43;;;5.70;99.90;;;;;;5094332;28;20444;-70
2021/11/27 12:24:02;;;;;;;22.20;14.17;;;5.70;99.90;;;;;;5094306;28;20543;-71
2021/11/27 12:26:30;;;;;;;24.13;13.93;;;5.80;99.90;;;;;;5094233;28;20485;-70
2021/11/27 12:29:12;;;;;;;26.27;13.60;;;5.80;99.90;;;;;;5094457;28;20507;-71
2021/11/27 12:31:44;;;;;;;18.90;13.40;;;5.80;99.90;;;;;;5094438;28;20470;-70
2021/11/27 12:34:13;;;;;;;22.10;13.67;;;5.80;99.90;;;;;;5094345;28;20494;-70
2021/11/27 12:36:45;;;;;;;23.20;14.40;;;5.80;99.90;;;;;;5095839;28;20506;-70
2021/11/27 12:39:16;;;;;;;23.20;14.10;;;5.70;99.90;;;;;;5094052;28;20450;-69
2021/11/27 12:41:46;;;;;;;21.63;13.80;;;5.60;99.90;;;;;;5094325;28;20438;-70
2021/11/27 12:44:20;;;;;;;21.40;13.93;;;5.60;99.90;;;;;;5094355;28;20489;-70
2021/11/27 12:46:49;;;;;;;23.50;13.70;;;5.40;99.90;;;;;;5094191;28;20500;-71
2021/11/27 12:49:54;;;;;;;18.73;14.17;;;5.40;99.90;;;;;;5094313;28;20526;-70